sensor_id;sensor_type;location;lat;lon;timestamp;P1;durP1;ratioP1;P2;durP2;ratioP2
51499;SDS011;39101;53.478;6.158;2024-03-06T00:01:41;22.33;;;14.00;;
51499;SDS011;39101;53.478;6.158;2024-03-06T00:04:06;21.50;;;13.20;;
51499;SDS011;39101;53.478;6.158;2024-03-06T00:06:32;22.57;;;13.10;;
51499;SDS011;39101;53.478;6.158;2024-03-06T00:08:58;25.80;;;15.97;;
51499;SDS011;39101;53.478;6.158;2024-03-06T00:11:25;21.13;;;13.00;;
51499;SDS011;39101;53.478;6.158;2024-03-06T00:13:50;24.03;;;13.07;;
51499;SDS011;39101;53.478;6.158;2024-03-06T00:16:16;24.73;;;14.20;;
51499;SDS011;39101;53.478;6.158;2024-03-06T00:18:42;18.03;;;11.73;;
51499;SDS011;39101;53.478;6.158;2024-03-06T00:21:08;22.37;;;13.37;;
51499;SDS011;39101;53.478;6.158;2024-03-06T00:23:34;23.03;;;14.57;;
51499;SDS011;39101;53.478;6.158;2024-03-06T00:26:02;24.90;;;14.10;;
51499;SDS011;39101;53.478;6.158;2024-03-06T00:28:28;25.63;;;14.80;;
51499;SDS011;39101;53.478;6.158;2024-03-06T00:30:54;25.23;;;14.37;;
51499;SDS011;39101;53.478;6.158;2024-03-06T00:33:20;24.63;;;12.73;;
51499;SDS011;39101;53.478;6.158;2024-03-06T00:35:46;21.37;;;12.60;;
51499;SDS011;39101;53.478;6.158;2024-03-06T00:38:12;21.17;;;13.07;;
51499;SDS011;39101;53.478;6.158;2024-03-06T00:40:38;22.80;;;13.13;;
51499;SDS011;39101;53.478;6.158;2024-03-06T00:43:04;21.47;;;12.97;;
51499;SDS011;39101;53.478;6.158;2024-03-06T00:45:31;20.30;;;12.87;;
51499;SDS011;39101;53.478;6.158;2024-03-06T00:47:57;17.80;;;12.43;;
51499;SDS011;39101;53.478;6.158;2024-03-06T00:50:22;20.93;;;12.50;;
51499;SDS011;39101;53.478;6.158;2024-03-06T00:52:48;19.73;;;12.13;;
51499;SDS011;39101;53.478;6.158;2024-03-06T00:55:14;23.00;;;13.83;;
51499;SDS011;39101;53.478;6.158;2024-03-06T00:57:40;21.53;;;12.83;;
51499;SDS011;39101;53.478;6.158;2024-03-06T01:00:06;20.17;;;13.00;;
51499;SDS011;39101;53.478;6.158;2024-03-06T01:02:38;23.90;;;13.67;;
51499;SDS011;39101;53.478;6.158;2024-03-06T01:05:04;23.83;;;12.93;;
51499;SDS011;39101;53.478;6.158;2024-03-06T01:07:30;23.47;;;14.10;;
51499;SDS011;39101;53.478;6.158;2024-03-06T01:09:59;23.07;;;13.50;;
51499;SDS011;39101;53.478;6.158;2024-03-06T01:12:25;20.40;;;14.10;;
51499;SDS011;39101;53.478;6.158;2024-03-06T01:14:50;24.10;;;15.20;;
51499;SDS011;39101;53.478;6.158;2024-03-06T01:17:16;24.00;;;14.30;;
51499;SDS011;39101;53.478;6.158;2024-03-06T01:19:42;22.17;;;14.23;;
51499;SDS011;39101;53.478;6.158;2024-03-06T01:22:11;21.90;;;14.53;;
51499;SDS011;39101;53.478;6.158;2024-03-06T01:24:40;22.20;;;14.97;;
51499;SDS011;39101;53.478;6.158;2024-03-06T01:27:05;25.20;;;15.57;;
51499;SDS011;39101;53.478;6.158;2024-03-06T01:29:31;24.53;;;14.73;;
51499;SDS011;39101;53.478;6.158;2024-03-06T01:31:57;25.20;;;14.37;;
51499;SDS011;39101;53.478;6.158;2024-03-06T01:34:23;25.50;;;14.70;;
51499;SDS011;39101;53.478;6.158;2024-03-06T01:36:50;21.23;;;14.07;;
51499;SDS011;39101;53.478;6.158;2024-03-06T01:39:16;23.97;;;14.13;;
51499;SDS011;39101;53.478;6.158;2024-03-06T01:41:48;21.87;;;13.40;;
51499;SDS011;39101;53.478;6.158;2024-03-06T01:44:15;21.83;;;13.33;;
51499;SDS011;39101;53.478;6.158;2024-03-06T01:46:42;20.43;;;13.53;;
51499;SDS011;39101;53.478;6.158;2024-03-06T01:49:09;22.83;;;13.03;;
51499;SDS011;39101;53.478;6.158;2024-03-06T01:51:36;26.57;;;13.80;;
51499;SDS011;39101;53.478;6.158;2024-03-06T01:54:02;21.63;;;13.90;;
51499;SDS011;39101;53.478;6.158;2024-03-06T01:56:29;21.03;;;13.07;;
51499;SDS011;39101;53.478;6.158;2024-03-06T01:58:56;24.43;;;13.80;;
51499;SDS011;39101;53.478;6.158;2024-03-06T02:01:23;23.50;;;13.80;;
51499;SDS011;39101;53.478;6.158;2024-03-06T02:03:49;19.77;;;13.63;;
51499;SDS011;39101;53.478;6.158;2024-03-06T02:06:16;25.10;;;14.63;;
51499;SDS011;39101;53.478;6.158;2024-03-06T02:08:47;22.17;;;12.70;;
51499;SDS011;39101;53.478;6.158;2024-03-06T02:11:13;23.10;;;13.10;;
51499;SDS011;39101;53.478;6.158;2024-03-06T02:13:40;20.23;;;12.47;;
51499;SDS011;39101;53.478;6.158;2024-03-06T02:16:07;21.37;;;13.13;;
51499;SDS011;39101;53.478;6.158;2024-03-06T02:18:33;18.87;;;12.47;;
51499;SDS011;39101;53.478;6.158;2024-03-06T02:20:58;23.60;;;13.90;;
51499;SDS011;39101;53.478;6.158;2024-03-06T02:23:24;19.90;;;12.97;;
51499;SDS011;39101;53.478;6.158;2024-03-06T02:25:50;23.47;;;15.00;;
51499;SDS011;39101;53.478;6.158;2024-03-06T02:28:16;24.20;;;14.53;;
51499;SDS011;39101;53.478;6.158;2024-03-06T02:30:42;23.23;;;14.83;;
51499;SDS011;39101;53.478;6.158;2024-03-06T02:33:08;23.53;;;14.23;;
51499;SDS011;39101;53.478;6.158;2024-03-06T02:35:36;24.50;;;13.40;;
51499;SDS011;39101;53.478;6.158;2024-03-06T02:38:03;20.80;;;12.93;;
51499;SDS011;39101;53.478;6.158;2024-03-06T02:40:32;21.97;;;13.57;;
51499;SDS011;39101;53.478;6.158;2024-03-06T02:42:58;23.03;;;14.10;;
51499;SDS011;39101;53.478;6.158;2024-03-06T02:45:24;20.97;;;11.93;;
51499;SDS011;39101;53.478;6.158;2024-03-06T02:47:49;25.70;;;13.57;;
51499;SDS011;39101;53.478;6.158;2024-03-06T02:50:15;23.13;;;14.07;;
51499;SDS011;39101;53.478;6.158;2024-03-06T02:52:41;21.63;;;13.73;;
51499;SDS011;39101;53.478;6.158;2024-03-06T02:55:06;21.50;;;13.33;;
51499;SDS011;39101;53.478;6.158;2024-03-06T02:57:32;21.60;;;13.30;;
51499;SDS011;39101;53.478;6.158;2024-03-06T02:59:59;23.70;;;15.07;;
51499;SDS011;39101;53.478;6.158;2024-03-06T03:02:24;26.97;;;14.00;;
51499;SDS011;39101;53.478;6.158;2024-03-06T03:04:51;20.33;;;14.40;;
51499;SDS011;39101;53.478;6.158;2024-03-06T03:07:19;22.20;;;14.20;;
51499;SDS011;39101;53.478;6.158;2024-03-06T03:09:46;24.50;;;14.53;;
51499;SDS011;39101;53.478;6.158;2024-03-06T03:12:12;22.37;;;14.90;;
51499;SDS011;39101;53.478;6.158;2024-03-06T03:14:39;26.50;;;15.57;;
51499;SDS011;39101;53.478;6.158;2024-03-06T03:17:06;24.90;;;14.40;;
51499;SDS011;39101;53.478;6.158;2024-03-06T03:19:31;23.13;;;14.77;;
51499;SDS011;39101;53.478;6.158;2024-03-06T03:21:57;22.60;;;14.80;;
51499;SDS011;39101;53.478;6.158;2024-03-06T03:24:23;26.93;;;15.30;;
51499;SDS011;39101;53.478;6.158;2024-03-06T03:26:51;25.60;;;15.40;;
51499;SDS011;39101;53.478;6.158;2024-03-06T03:29:17;23.33;;;15.00;;
51499;SDS011;39101;53.478;6.158;2024-03-06T03:31:43;25.83;;;15.53;;
51499;SDS011;39101;53.478;6.158;2024-03-06T03:34:09;26.10;;;16.20;;
51499;SDS011;39101;53.478;6.158;2024-03-06T03:36:39;23.93;;;14.93;;
51499;SDS011;39101;53.478;6.158;2024-03-06T03:39:11;27.83;;;15.97;;
51499;SDS011;39101;53.478;6.158;2024-03-06T03:41:44;25.07;;;15.87;;
51499;SDS011;39101;53.478;6.158;2024-03-06T03:44:11;24.13;;;15.00;;
51499;SDS011;39101;53.478;6.158;2024-03-06T03:46:38;23.60;;;15.73;;
51499;SDS011;39101;53.478;6.158;2024-03-06T03:49:04;26.70;;;16.80;;
51499;SDS011;39101;53.478;6.158;2024-03-06T03:51:29;28.67;;;16.37;;
51499;SDS011;39101;53.478;6.158;2024-03-06T03:53:55;26.43;;;16.10;;
51499;SDS011;39101;53.478;6.158;2024-03-06T03:56:21;28.50;;;16.27;;
51499;SDS011;39101;53.478;6.158;2024-03-06T03:58:47;27.60;;;16.93;;
51499;SDS011;39101;53.478;6.158;2024-03-06T04:01:12;27.60;;;17.73;;
51499;SDS011;39101;53.478;6.158;2024-03-06T04:03:38;28.90;;;17.17;;
51499;SDS011;39101;53.478;6.158;2024-03-06T04:06:05;22.50;;;16.63;;
51499;SDS011;39101;53.478;6.158;2024-03-06T04:08:32;31.13;;;18.63;;
51499;SDS011;39101;53.478;6.158;2024-03-06T04:10:58;25.03;;;15.53;;
51499;SDS011;39101;53.478;6.158;2024-03-06T04:13:23;26.40;;;16.00;;
51499;SDS011;39101;53.478;6.158;2024-03-06T04:15:49;27.63;;;18.53;;
51499;SDS011;39101;53.478;6.158;2024-03-06T04:18:15;28.40;;;17.30;;
51499;SDS011;39101;53.478;6.158;2024-03-06T04:20:40;26.57;;;17.77;;
51499;SDS011;39101;53.478;6.158;2024-03-06T04:23:06;27.70;;;17.27;;
51499;SDS011;39101;53.478;6.158;2024-03-06T04:25:32;31.33;;;17.03;;
51499;SDS011;39101;53.478;6.158;2024-03-06T04:27:58;29.87;;;17.50;;
51499;SDS011;39101;53.478;6.158;2024-03-06T04:30:24;23.43;;;15.70;;
51499;SDS011;39101;53.478;6.158;2024-03-06T04:32:50;29.00;;;18.83;;
51499;SDS011;39101;53.478;6.158;2024-03-06T04:35:15;28.77;;;17.40;;
51499;SDS011;39101;53.478;6.158;2024-03-06T04:37:41;32.80;;;17.10;;
51499;SDS011;39101;53.478;6.158;2024-03-06T04:40:08;27.47;;;18.10;;
51499;SDS011;39101;53.478;6.158;2024-03-06T04:42:35;24.87;;;17.40;;
51499;SDS011;39101;53.478;6.158;2024-03-06T04:45:11;27.17;;;17.17;;
51499;SDS011;39101;53.478;6.158;2024-03-06T04:47:40;30.07;;;17.43;;
51499;SDS011;39101;53.478;6.158;2024-03-06T04:50:10;25.97;;;16.77;;
51499;SDS011;39101;53.478;6.158;2024-03-06T04:52:40;26.98;;;17.00;;
51499;SDS011;39101;53.478;6.158;2024-03-06T04:55:06;26.60;;;16.98;;
51499;SDS011;39101;53.478;6.158;2024-03-06T04:57:36;32.17;;;18.90;;
51499;SDS011;39101;53.478;6.158;2024-03-06T05:00:08;33.13;;;18.57;;
51499;SDS011;39101;53.478;6.158;2024-03-06T05:02:35;26.97;;;18.63;;
51499;SDS011;39101;53.478;6.158;2024-03-06T05:05:02;30.33;;;18.13;;
51499;SDS011;39101;53.478;6.158;2024-03-06T05:07:28;29.60;;;17.47;;
51499;SDS011;39101;53.478;6.158;2024-03-06T05:09:55;26.10;;;18.37;;
51499;SDS011;39101;53.478;6.158;2024-03-06T05:12:22;31.47;;;18.90;;
51499;SDS011;39101;53.478;6.158;2024-03-06T05:14:51;30.40;;;17.50;;
51499;SDS011;39101;53.478;6.158;2024-03-06T05:17:17;31.20;;;18.13;;
51499;SDS011;39101;53.478;6.158;2024-03-06T05:19:43;28.70;;;17.97;;
51499;SDS011;39101;53.478;6.158;2024-03-06T05:22:09;28.30;;;18.40;;
51499;SDS011;39101;53.478;6.158;2024-03-06T05:24:37;30.17;;;19.17;;
51499;SDS011;39101;53.478;6.158;2024-03-06T05:27:02;25.47;;;17.43;;
51499;SDS011;39101;53.478;6.158;2024-03-06T05:29:29;34.33;;;19.13;;
51499;SDS011;39101;53.478;6.158;2024-03-06T05:31:54;29.53;;;17.83;;
51499;SDS011;39101;53.478;6.158;2024-03-06T05:34:21;32.80;;;20.07;;
51499;SDS011;39101;53.478;6.158;2024-03-06T05:36:47;33.30;;;18.17;;
51499;SDS011;39101;53.478;6.158;2024-03-06T05:39:13;29.70;;;18.47;;
51499;SDS011;39101;53.478;6.158;2024-03-06T05:41:39;25.67;;;18.37;;
51499;SDS011;39101;53.478;6.158;2024-03-06T05:44:06;29.13;;;18.20;;
51499;SDS011;39101;53.478;6.158;2024-03-06T05:46:32;33.33;;;20.87;;
51499;SDS011;39101;53.478;6.158;2024-03-06T05:48:57;30.57;;;18.70;;
51499;SDS011;39101;53.478;6.158;2024-03-06T05:51:23;29.93;;;17.53;;
51499;SDS011;39101;53.478;6.158;2024-03-06T05:53:49;29.77;;;18.53;;
51499;SDS011;39101;53.478;6.158;2024-03-06T05:56:15;30.23;;;18.43;;
51499;SDS011;39101;53.478;6.158;2024-03-06T05:58:43;31.97;;;18.30;;
51499;SDS011;39101;53.478;6.158;2024-03-06T06:01:15;27.30;;;18.80;;
51499;SDS011;39101;53.478;6.158;2024-03-06T06:03:45;29.33;;;17.97;;
51499;SDS011;39101;53.478;6.158;2024-03-06T06:06:17;26.73;;;18.73;;
51499;SDS011;39101;53.478;6.158;2024-03-06T06:08:45;24.40;;;15.90;;
51499;SDS011;39101;53.478;6.158;2024-03-06T06:11:11;30.90;;;18.67;;
51499;SDS011;39101;53.478;6.158;2024-03-06T06:13:38;31.63;;;19.33;;
51499;SDS011;39101;53.478;6.158;2024-03-06T06:16:07;30.17;;;17.27;;
51499;SDS011;39101;53.478;6.158;2024-03-06T06:18:32;32.60;;;19.60;;
51499;SDS011;39101;53.478;6.158;2024-03-06T06:20:58;28.30;;;16.80;;
51499;SDS011;39101;53.478;6.158;2024-03-06T06:23:24;24.97;;;16.90;;
51499;SDS011;39101;53.478;6.158;2024-03-06T06:25:50;29.00;;;17.07;;
51499;SDS011;39101;53.478;6.158;2024-03-06T06:28:16;26.03;;;17.60;;
51499;SDS011;39101;53.478;6.158;2024-03-06T06:30:42;25.90;;;16.57;;
51499;SDS011;39101;53.478;6.158;2024-03-06T06:33:07;29.37;;;17.30;;
51499;SDS011;39101;53.478;6.158;2024-03-06T06:35:36;31.53;;;18.80;;
51499;SDS011;39101;53.478;6.158;2024-03-06T06:38:02;29.83;;;18.50;;
51499;SDS011;39101;53.478;6.158;2024-03-06T06:40:28;27.70;;;17.53;;
51499;SDS011;39101;53.478;6.158;2024-03-06T06:42:53;27.20;;;18.17;;
51499;SDS011;39101;53.478;6.158;2024-03-06T06:45:20;28.90;;;18.57;;
51499;SDS011;39101;53.478;6.158;2024-03-06T06:47:49;27.35;;;16.45;;
51499;SDS011;39101;53.478;6.158;2024-03-06T06:50:16;30.83;;;17.70;;
51499;SDS011;39101;53.478;6.158;2024-03-06T06:52:42;28.17;;;17.40;;
51499;SDS011;39101;53.478;6.158;2024-03-06T06:55:08;26.47;;;15.90;;
51499;SDS011;39101;53.478;6.158;2024-03-06T06:57:37;30.50;;;17.47;;
51499;SDS011;39101;53.478;6.158;2024-03-06T07:00:03;27.73;;;17.33;;
51499;SDS011;39101;53.478;6.158;2024-03-06T07:02:36;30.10;;;17.93;;
51499;SDS011;39101;53.478;6.158;2024-03-06T07:05:04;29.70;;;17.30;;
51499;SDS011;39101;53.478;6.158;2024-03-06T07:07:30;28.67;;;18.03;;
51499;SDS011;39101;53.478;6.158;2024-03-06T07:09:56;28.63;;;17.83;;
51499;SDS011;39101;53.478;6.158;2024-03-06T07:12:21;26.07;;;16.60;;
51499;SDS011;39101;53.478;6.158;2024-03-06T07:14:47;28.13;;;17.03;;
51499;SDS011;39101;53.478;6.158;2024-03-06T07:17:13;33.50;;;16.90;;
51499;SDS011;39101;53.478;6.158;2024-03-06T07:19:38;29.00;;;17.20;;
51499;SDS011;39101;53.478;6.158;2024-03-06T07:22:04;28.30;;;16.70;;
51499;SDS011;39101;53.478;6.158;2024-03-06T07:24:30;26.33;;;16.00;;
51499;SDS011;39101;53.478;6.158;2024-03-06T07:26:56;26.57;;;17.53;;
51499;SDS011;39101;53.478;6.158;2024-03-06T07:29:21;25.97;;;16.43;;
51499;SDS011;39101;53.478;6.158;2024-03-06T07:31:47;25.77;;;17.17;;
51499;SDS011;39101;53.478;6.158;2024-03-06T07:34:13;26.27;;;16.40;;
51499;SDS011;39101;53.478;6.158;2024-03-06T07:36:43;26.90;;;16.90;;
51499;SDS011;39101;53.478;6.158;2024-03-06T07:39:08;26.17;;;17.33;;
51499;SDS011;39101;53.478;6.158;2024-03-06T07:41:34;28.63;;;18.63;;
51499;SDS011;39101;53.478;6.158;2024-03-06T07:44:00;25.57;;;16.23;;
51499;SDS011;39101;53.478;6.158;2024-03-06T07:46:26;28.30;;;17.27;;
51499;SDS011;39101;53.478;6.158;2024-03-06T07:48:51;31.20;;;15.50;;
51499;SDS011;39101;53.478;6.158;2024-03-06T07:51:17;24.77;;;16.77;;
51499;SDS011;39101;53.478;6.158;2024-03-06T07:53:43;24.00;;;15.80;;
51499;SDS011;39101;53.478;6.158;2024-03-06T07:56:12;27.47;;;17.53;;
51499;SDS011;39101;53.478;6.158;2024-03-06T07:58:38;28.43;;;17.37;;
51499;SDS011;39101;53.478;6.158;2024-03-06T08:01:04;31.40;;;18.13;;
51499;SDS011;39101;53.478;6.158;2024-03-06T08:03:30;26.00;;;16.53;;
51499;SDS011;39101;53.478;6.158;2024-03-06T08:05:55;29.60;;;17.17;;
51499;SDS011;39101;53.478;6.158;2024-03-06T08:08:21;25.20;;;17.03;;
51499;SDS011;39101;53.478;6.158;2024-03-06T08:10:47;26.63;;;17.50;;
51499;SDS011;39101;53.478;6.158;2024-03-06T08:13:13;26.53;;;16.73;;
51499;SDS011;39101;53.478;6.158;2024-03-06T08:15:39;28.27;;;16.37;;
51499;SDS011;39101;53.478;6.158;2024-03-06T08:18:05;24.47;;;15.40;;
51499;SDS011;39101;53.478;6.158;2024-03-06T08:20:31;24.57;;;16.17;;
51499;SDS011;39101;53.478;6.158;2024-03-06T08:22:58;30.47;;;17.70;;
51499;SDS011;39101;53.478;6.158;2024-03-06T08:25:23;24.33;;;16.83;;
51499;SDS011;39101;53.478;6.158;2024-03-06T08:27:49;26.93;;;16.67;;
51499;SDS011;39101;53.478;6.158;2024-03-06T08:30:15;28.57;;;17.13;;
51499;SDS011;39101;53.478;6.158;2024-03-06T08:32:41;25.73;;;16.00;;
51499;SDS011;39101;53.478;6.158;2024-03-06T08:35:09;26.37;;;16.70;;
51499;SDS011;39101;53.478;6.158;2024-03-06T08:37:39;28.67;;;16.20;;
51499;SDS011;39101;53.478;6.158;2024-03-06T08:40:09;26.88;;;16.27;;
51499;SDS011;39101;53.478;6.158;2024-03-06T08:42:39;27.47;;;16.60;;
51499;SDS011;39101;53.478;6.158;2024-03-06T08:45:06;24.63;;;17.33;;
51499;SDS011;39101;53.478;6.158;2024-03-06T08:47:33;24.80;;;16.43;;
51499;SDS011;39101;53.478;6.158;2024-03-06T08:49:59;26.37;;;16.37;;
51499;SDS011;39101;53.478;6.158;2024-03-06T08:52:25;30.23;;;17.20;;
51499;SDS011;39101;53.478;6.158;2024-03-06T08:54:50;31.87;;;17.67;;
51499;SDS011;39101;53.478;6.158;2024-03-06T08:57:16;28.97;;;17.03;;
51499;SDS011;39101;53.478;6.158;2024-03-06T08:59:42;25.00;;;16.60;;
51499;SDS011;39101;53.478;6.158;2024-03-06T09:02:18;27.42;;;17.48;;
51499;SDS011;39101;53.478;6.158;2024-03-06T09:04:47;28.33;;;16.67;;
51499;SDS011;39101;53.478;6.158;2024-03-06T09:07:13;29.47;;;17.00;;
51499;SDS011;39101;53.478;6.158;2024-03-06T09:09:39;32.67;;;18.50;;
51499;SDS011;39101;53.478;6.158;2024-03-06T09:12:06;32.00;;;19.27;;
51499;SDS011;39101;53.478;6.158;2024-03-06T09:14:35;32.60;;;16.70;;
51499;SDS011;39101;53.478;6.158;2024-03-06T09:17:05;28.52;;;17.67;;
51499;SDS011;39101;53.478;6.158;2024-03-06T09:19:31;27.43;;;16.50;;
51499;SDS011;39101;53.478;6.158;2024-03-06T09:21:57;28.70;;;17.20;;
51499;SDS011;39101;53.478;6.158;2024-03-06T09:24:24;31.10;;;17.57;;
51499;SDS011;39101;53.478;6.158;2024-03-06T09:26:51;28.20;;;18.43;;
51499;SDS011;39101;53.478;6.158;2024-03-06T09:29:17;30.33;;;18.07;;
51499;SDS011;39101;53.478;6.158;2024-03-06T09:31:43;26.43;;;16.83;;
51499;SDS011;39101;53.478;6.158;2024-03-06T09:34:09;30.50;;;17.27;;
51499;SDS011;39101;53.478;6.158;2024-03-06T09:36:37;30.03;;;18.17;;
51499;SDS011;39101;53.478;6.158;2024-03-06T09:39:10;32.63;;;17.83;;
51499;SDS011;39101;53.478;6.158;2024-03-06T09:41:43;31.23;;;19.33;;
51499;SDS011;39101;53.478;6.158;2024-03-06T09:44:10;32.80;;;18.23;;
51499;SDS011;39101;53.478;6.158;2024-03-06T09:46:35;33.53;;;20.53;;
51499;SDS011;39101;53.478;6.158;2024-03-06T09:49:02;29.63;;;18.30;;
51499;SDS011;39101;53.478;6.158;2024-03-06T09:51:28;30.43;;;18.60;;
51499;SDS011;39101;53.478;6.158;2024-03-06T09:53:54;31.10;;;18.40;;
51499;SDS011;39101;53.478;6.158;2024-03-06T09:56:20;30.50;;;19.17;;
51499;SDS011;39101;53.478;6.158;2024-03-06T09:58:46;32.60;;;17.97;;
51499;SDS011;39101;53.478;6.158;2024-03-06T10:01:12;30.37;;;19.43;;
51499;SDS011;39101;53.478;6.158;2024-03-06T10:03:39;31.27;;;18.47;;
51499;SDS011;39101;53.478;6.158;2024-03-06T10:06:08;32.33;;;18.90;;
51499;SDS011;39101;53.478;6.158;2024-03-06T10:08:34;28.30;;;18.43;;
51499;SDS011;39101;53.478;6.158;2024-03-06T10:11:02;30.93;;;18.70;;
51499;SDS011;39101;53.478;6.158;2024-03-06T10:13:28;30.73;;;19.27;;
51499;SDS011;39101;53.478;6.158;2024-03-06T10:15:57;28.27;;;19.27;;
51499;SDS011;39101;53.478;6.158;2024-03-06T10:18:27;28.63;;;19.63;;
51499;SDS011;39101;53.478;6.158;2024-03-06T10:20:54;29.67;;;18.37;;
51499;SDS011;39101;53.478;6.158;2024-03-06T10:23:20;29.33;;;17.20;;
51499;SDS011;39101;53.478;6.158;2024-03-06T10:25:46;28.57;;;18.67;;
51499;SDS011;39101;53.478;6.158;2024-03-06T10:28:22;27.50;;;17.93;;
51499;SDS011;39101;53.478;6.158;2024-03-06T10:30:49;35.77;;;18.30;;
51499;SDS011;39101;53.478;6.158;2024-03-06T10:33:16;31.70;;;18.70;;
51499;SDS011;39101;53.478;6.158;2024-03-06T10:35:47;26.77;;;17.83;;
51499;SDS011;39101;53.478;6.158;2024-03-06T10:38:16;29.50;;;18.13;;
51499;SDS011;39101;53.478;6.158;2024-03-06T10:40:45;27.43;;;17.97;;
51499;SDS011;39101;53.478;6.158;2024-03-06T10:43:11;29.83;;;19.00;;
51499;SDS011;39101;53.478;6.158;2024-03-06T10:48:13;31.00;;;18.97;;
51499;SDS011;39101;53.478;6.158;2024-03-06T10:50:39;29.53;;;18.87;;
51499;SDS011;39101;53.478;6.158;2024-03-06T10:53:09;30.43;;;18.73;;
51499;SDS011;39101;53.478;6.158;2024-03-06T10:55:35;33.67;;;19.53;;
51499;SDS011;39101;53.478;6.158;2024-03-06T10:58:03;31.63;;;20.13;;
51499;SDS011;39101;53.478;6.158;2024-03-06T11:00:34;33.60;;;20.30;;
51499;SDS011;39101;53.478;6.158;2024-03-06T11:03:08;29.85;;;18.67;;
51499;SDS011;39101;53.478;6.158;2024-03-06T11:05:40;34.57;;;19.80;;
51499;SDS011;39101;53.478;6.158;2024-03-06T11:10:34;31.43;;;18.03;;
51499;SDS011;39101;53.478;6.158;2024-03-06T11:13:02;32.27;;;19.97;;
51499;SDS011;39101;53.478;6.158;2024-03-06T11:15:29;29.43;;;19.33;;
51499;SDS011;39101;53.478;6.158;2024-03-06T11:17:55;30.50;;;19.33;;
51499;SDS011;39101;53.478;6.158;2024-03-06T11:20:21;34.03;;;21.13;;
51499;SDS011;39101;53.478;6.158;2024-03-06T11:28:23;35.23;;;20.93;;
51499;SDS011;39101;53.478;6.158;2024-03-06T11:31:04;35.70;;;21.73;;
51499;SDS011;39101;53.478;6.158;2024-03-06T11:33:43;34.90;;;21.43;;
51499;SDS011;39101;53.478;6.158;2024-03-06T11:38:48;35.33;;;22.67;;
51499;SDS011;39101;53.478;6.158;2024-03-06T11:41:22;31.67;;;20.70;;
51499;SDS011;39101;53.478;6.158;2024-03-06T11:43:50;34.47;;;21.63;;
51499;SDS011;39101;53.478;6.158;2024-03-06T11:46:18;36.67;;;23.23;;
51499;SDS011;39101;53.478;6.158;2024-03-06T11:49:17;36.03;;;21.07;;
51499;SDS011;39101;53.478;6.158;2024-03-06T11:51:50;35.03;;;20.52;;
51499;SDS011;39101;53.478;6.158;2024-03-06T11:54:16;33.13;;;21.65;;
51499;SDS011;39101;53.478;6.158;2024-03-06T11:56:49;34.87;;;21.93;;
51499;SDS011;39101;53.478;6.158;2024-03-06T11:59:16;39.77;;;21.80;;
51499;SDS011;39101;53.478;6.158;2024-03-06T12:02:03;33.77;;;21.23;;
51499;SDS011;39101;53.478;6.158;2024-03-06T12:04:31;32.53;;;20.60;;
51499;SDS011;39101;53.478;6.158;2024-03-06T12:06:59;35.10;;;22.33;;
51499;SDS011;39101;53.478;6.158;2024-03-06T12:09:26;31.20;;;21.23;;
51499;SDS011;39101;53.478;6.158;2024-03-06T12:11:52;33.00;;;21.03;;
51499;SDS011;39101;53.478;6.158;2024-03-06T12:14:18;30.53;;;20.27;;
51499;SDS011;39101;53.478;6.158;2024-03-06T12:16:55;34.00;;;21.00;;
51499;SDS011;39101;53.478;6.158;2024-03-06T12:19:21;31.53;;;20.73;;
51499;SDS011;39101;53.478;6.158;2024-03-06T12:21:47;36.23;;;22.00;;
51499;SDS011;39101;53.478;6.158;2024-03-06T12:24:15;32.33;;;20.47;;
51499;SDS011;39101;53.478;6.158;2024-03-06T12:26:43;34.25;;;21.80;;
51499;SDS011;39101;53.478;6.158;2024-03-06T12:29:16;35.90;;;22.53;;
51499;SDS011;39101;53.478;6.158;2024-03-06T12:31:44;32.23;;;21.37;;
51499;SDS011;39101;53.478;6.158;2024-03-06T12:34:13;34.47;;;21.77;;
51499;SDS011;39101;53.478;6.158;2024-03-06T12:36:40;33.63;;;22.70;;
51499;SDS011;39101;53.478;6.158;2024-03-06T12:39:06;35.60;;;22.40;;
51499;SDS011;39101;53.478;6.158;2024-03-06T12:41:40;39.43;;;22.70;;
51499;SDS011;39101;53.478;6.158;2024-03-06T12:44:06;34.27;;;21.10;;
51499;SDS011;39101;53.478;6.158;2024-03-06T12:46:32;34.20;;;21.30;;
51499;SDS011;39101;53.478;6.158;2024-03-06T12:48:58;39.20;;;23.40;;
51499;SDS011;39101;53.478;6.158;2024-03-06T12:51:24;37.00;;;22.97;;
51499;SDS011;39101;53.478;6.158;2024-03-06T12:53:50;38.60;;;23.43;;
51499;SDS011;39101;53.478;6.158;2024-03-06T12:56:16;36.73;;;22.77;;
51499;SDS011;39101;53.478;6.158;2024-03-06T12:58:42;34.47;;;23.03;;
51499;SDS011;39101;53.478;6.158;2024-03-06T13:01:08;34.33;;;23.13;;
51499;SDS011;39101;53.478;6.158;2024-03-06T13:03:35;38.67;;;22.73;;
51499;SDS011;39101;53.478;6.158;2024-03-06T13:06:02;36.37;;;23.93;;
51499;SDS011;39101;53.478;6.158;2024-03-06T13:08:29;38.50;;;24.10;;
51499;SDS011;39101;53.478;6.158;2024-03-06T13:10:55;38.40;;;23.77;;
51499;SDS011;39101;53.478;6.158;2024-03-06T13:13:21;32.80;;;21.23;;
51499;SDS011;39101;53.478;6.158;2024-03-06T13:15:49;35.40;;;22.87;;
51499;SDS011;39101;53.478;6.158;2024-03-06T13:18:15;33.63;;;22.67;;
51499;SDS011;39101;53.478;6.158;2024-03-06T13:20:41;38.13;;;23.27;;
51499;SDS011;39101;53.478;6.158;2024-03-06T13:23:07;36.57;;;24.10;;
51499;SDS011;39101;53.478;6.158;2024-03-06T13:25:33;37.27;;;24.30;;
51499;SDS011;39101;53.478;6.158;2024-03-06T13:27:59;39.40;;;24.77;;
51499;SDS011;39101;53.478;6.158;2024-03-06T13:30:25;38.33;;;24.90;;
51499;SDS011;39101;53.478;6.158;2024-03-06T13:32:51;35.50;;;24.10;;
51499;SDS011;39101;53.478;6.158;2024-03-06T13:35:17;40.60;;;24.97;;
51499;SDS011;39101;53.478;6.158;2024-03-06T13:37:45;35.17;;;23.20;;
51499;SDS011;39101;53.478;6.158;2024-03-06T13:40:11;37.53;;;23.97;;
51499;SDS011;39101;53.478;6.158;2024-03-06T13:42:41;41.50;;;25.33;;
51499;SDS011;39101;53.478;6.158;2024-03-06T13:45:08;40.33;;;24.80;;
51499;SDS011;39101;53.478;6.158;2024-03-06T13:47:43;38.83;;;25.97;;
51499;SDS011;39101;53.478;6.158;2024-03-06T13:50:13;39.57;;;24.63;;
51499;SDS011;39101;53.478;6.158;2024-03-06T13:52:41;36.80;;;25.10;;
51499;SDS011;39101;53.478;6.158;2024-03-06T13:55:07;41.17;;;25.97;;
51499;SDS011;39101;53.478;6.158;2024-03-06T13:57:33;40.40;;;27.03;;
51499;SDS011;39101;53.478;6.158;2024-03-06T14:00:01;43.10;;;26.27;;
51499;SDS011;39101;53.478;6.158;2024-03-06T14:02:30;33.93;;;23.43;;
51499;SDS011;39101;53.478;6.158;2024-03-06T14:04:56;35.17;;;25.07;;
51499;SDS011;39101;53.478;6.158;2024-03-06T14:07:21;34.90;;;24.00;;
51499;SDS011;39101;53.478;6.158;2024-03-06T14:09:48;34.63;;;23.50;;
51499;SDS011;39101;53.478;6.158;2024-03-06T14:12:17;34.53;;;24.57;;
51499;SDS011;39101;53.478;6.158;2024-03-06T14:14:43;35.80;;;24.70;;
51499;SDS011;39101;53.478;6.158;2024-03-06T14:17:12;35.77;;;24.43;;
51499;SDS011;39101;53.478;6.158;2024-03-06T14:19:38;40.67;;;26.17;;
51499;SDS011;39101;53.478;6.158;2024-03-06T14:22:05;32.40;;;23.37;;
51499;SDS011;39101;53.478;6.158;2024-03-06T14:24:32;38.80;;;25.30;;
51499;SDS011;39101;53.478;6.158;2024-03-06T14:26:57;41.43;;;27.43;;
51499;SDS011;39101;53.478;6.158;2024-03-06T14:29:23;37.03;;;23.80;;
51499;SDS011;39101;53.478;6.158;2024-03-06T14:31:50;37.37;;;25.60;;
51499;SDS011;39101;53.478;6.158;2024-03-06T14:34:16;39.17;;;25.40;;